createdAt,value
2023-05-21T00:00:12.193Z,101466.09
2023-05-21T00:02:40.187Z,101467.84
2023-05-21T00:05:13.754Z,101455.00
2023-05-21T00:07:41.998Z,101453.53
2023-05-21T00:10:09.195Z,101453.03
2023-05-21T00:12:36.171Z,101457.59
2023-05-21T00:15:02.989Z,101451.09
2023-05-21T00:17:29.685Z,101446.66
2023-05-21T00:20:00.277Z,101440.38
2023-05-21T00:22:27.067Z,101445.03
2023-05-21T00:24:53.733Z,101447.78
2023-05-21T00:27:20.538Z,101439.75
2023-05-21T00:29:47.231Z,101442.25
2023-05-21T00:32:13.963Z,101441.81
2023-05-21T00:34:41.356Z,101446.38
2023-05-21T00:37:10.109Z,101444.91
2023-05-21T00:39:37.101Z,101435.25
2023-05-21T00:42:04.531Z,101433.78
2023-05-21T00:44:34.473Z,101444.44
2023-05-21T00:47:02.308Z,101430.63
2023-05-21T00:49:29.684Z,101434.44
2023-05-21T00:51:56.818Z,101426.38
2023-05-21T00:54:24.189Z,101437.41
2023-05-21T00:56:52.169Z,101436.78
2023-05-21T00:59:19.169Z,101429.44
2023-05-21T01:01:46.400Z,101431.44
2023-05-21T01:04:13.270Z,101419.44
2023-05-21T01:06:39.953Z,101413.97
2023-05-21T01:09:07.480Z,101419.25
2023-05-21T01:11:43.697Z,101413.81
2023-05-21T01:14:12.856Z,101420.00
2023-05-21T01:16:42.453Z,101410.31
2023-05-21T01:19:14.253Z,101410.03
2023-05-21T01:21:45.466Z,101406.03
2023-05-21T01:24:12.130Z,101418.22
2023-05-21T01:26:41.370Z,101410.88
2023-05-21T01:29:13.348Z,101413.72
2023-05-21T01:31:45.522Z,101413.72
2023-05-21T01:34:15.702Z,101407.81
2023-05-21T01:36:49.613Z,101410.66
2023-05-21T01:39:23.815Z,101403.09
2023-05-21T01:41:55.070Z,101397.59
2023-05-21T01:44:23.268Z,101414.75
2023-05-21T01:46:50.915Z,101402.66
2023-05-21T01:49:18.739Z,101396.56
2023-05-21T01:51:46.603Z,101396.03
2023-05-21T01:54:13.343Z,101397.59
2023-05-21T01:56:40.172Z,101397.50
2023-05-21T01:59:07.100Z,101389.09
2023-05-21T02:01:34.406Z,101396.31
2023-05-21T02:04:01.926Z,101397.38
2023-05-21T02:06:29.118Z,101389.25
2023-05-21T02:08:56.848Z,101387.78
2023-05-21T02:11:23.898Z,101386.22
2023-05-21T02:13:50.849Z,101387.69
2023-05-21T02:16:17.681Z,101390.53
2023-05-21T02:18:44.483Z,101385.47
2023-05-21T02:21:20.875Z,101379.78
2023-05-21T02:23:47.640Z,101374.63
2023-05-21T02:26:14.324Z,101377.16
2023-05-21T02:28:41.074Z,101383.25
2023-05-21T02:31:07.766Z,101371.47
2023-05-21T02:33:34.399Z,101381.56
2023-05-21T02:36:01.096Z,101383.34
2023-05-21T02:38:27.732Z,101377.47
2023-05-21T02:40:54.701Z,101376.84
2023-05-21T02:43:21.618Z,101373.81
2023-05-21T02:45:49.029Z,101384.63
2023-05-21T02:48:15.806Z,101372.22
2023-05-21T02:50:45.945Z,101372.41
2023-05-21T02:53:12.588Z,101373.38
2023-05-21T02:55:39.376Z,101370.75
2023-05-21T02:58:06.524Z,101370.75
2023-05-21T03:00:33.367Z,101367.03
2023-05-21T03:03:00.381Z,101365.47
2023-05-21T03:05:27.235Z,101366.50
2023-05-21T03:07:54.095Z,101361.88
2023-05-21T03:10:21.033Z,101358.72
2023-05-21T03:12:47.763Z,101362.41
2023-05-21T03:15:14.946Z,101368.41
2023-05-21T03:17:44.727Z,101361.16
2023-05-21T03:20:17.249Z,101359.38
2023-05-21T03:22:44.996Z,101362.47
2023-05-21T03:25:12.982Z,101353.47
2023-05-21T03:27:39.998Z,101359.69
2023-05-21T03:30:07.467Z,101364.13
2023-05-21T03:32:37.939Z,101365.28
2023-05-21T03:35:05.399Z,101371.50
2023-05-21T03:37:32.274Z,101356.09
2023-05-21T03:39:59.017Z,101362.66
2023-05-21T03:42:25.943Z,101372.03
2023-05-21T03:44:52.929Z,101361.50
2023-05-21T03:47:19.658Z,101367.41
2023-05-21T03:49:46.884Z,101374.94
2023-05-21T03:52:13.651Z,101363.69
2023-05-21T03:54:40.398Z,101367.78
2023-05-21T03:57:07.232Z,101368.41
2023-05-21T03:59:34.009Z,101370.53
2023-05-21T04:02:01.661Z,101378.69
2023-05-21T04:04:29.540Z,101373.00
2023-05-21T04:06:56.376Z,101372.47
2023-05-21T04:09:23.222Z,101375.81
2023-05-21T04:11:49.851Z,101376.22
2023-05-21T04:14:16.564Z,101369.97
2023-05-21T04:16:44.264Z,101370.97
2023-05-21T04:19:11.103Z,101373.66
2023-05-21T04:21:38.049Z,101380.63
2023-05-21T04:24:04.935Z,101374.88
2023-05-21T04:26:34.406Z,101384.00
2023-05-21T04:29:03.842Z,101382.00
2023-05-21T04:31:32.532Z,101379.97
2023-05-21T04:33:59.606Z,101379.50
2023-05-21T04:36:29.075Z,101387.84
2023-05-21T04:38:56.033Z,101395.41
2023-05-21T04:41:22.795Z,101387.13
2023-05-21T04:43:49.462Z,101391.25
2023-05-21T04:46:16.241Z,101397.25
2023-05-21T04:48:43.054Z,101389.09
2023-05-21T04:51:09.688Z,101395.00
2023-05-21T04:53:36.411Z,101393.28
2023-05-21T04:56:03.292Z,101390.53
2023-05-21T04:58:30.479Z,101394.47
2023-05-21T05:00:57.964Z,101392.06
2023-05-21T05:03:25.049Z,101399.84
2023-05-21T05:05:51.849Z,101394.09
2023-05-21T05:08:18.566Z,101396.41
2023-05-21T05:10:45.452Z,101394.63
2023-05-21T05:13:12.638Z,101389.22
2023-05-21T05:15:39.414Z,101390.81
2023-05-21T05:18:08.714Z,101393.34
2023-05-21T05:20:35.934Z,101392.97
2023-05-21T05:23:03.005Z,101392.47
2023-05-21T05:25:29.672Z,101399.84
2023-05-21T05:27:56.856Z,101405.88
2023-05-21T05:30:23.604Z,101396.00
2023-05-21T05:32:50.593Z,101391.16
2023-05-21T05:35:17.333Z,101392.22
2023-05-21T05:37:43.974Z,101394.66
2023-05-21T05:40:11.104Z,101399.94
2023-05-21T05:42:37.852Z,101392.41
2023-05-21T05:45:05.103Z,101397.16
2023-05-21T05:47:31.893Z,101398.25
2023-05-21T05:49:58.660Z,101401.97
2023-05-21T05:52:25.620Z,101400.44
2023-05-21T05:54:52.703Z,101394.13
2023-05-21T05:57:19.390Z,101395.94
2023-05-21T05:59:46.357Z,101395.53
2023-05-21T06:02:13.445Z,101400.56
2023-05-21T06:04:40.137Z,101396.97
2023-05-21T06:07:06.907Z,101404.22
2023-05-21T06:09:33.660Z,101395.16
2023-05-21T06:12:00.329Z,101400.88
2023-05-21T06:14:26.999Z,101395.22
2023-05-21T06:16:53.665Z,101384.94
2023-05-21T06:19:20.400Z,101388.00
2023-05-21T06:21:47.367Z,101396.97
2023-05-21T06:24:16.849Z,101382.59
2023-05-21T06:26:43.919Z,101386.06
2023-05-21T06:29:10.615Z,101388.72
2023-05-21T06:31:39.165Z,101386.84
2023-05-21T06:34:06.127Z,101386.88
2023-05-21T06:36:52.813Z,101379.78
2023-05-21T06:39:19.572Z,101386.06
2023-05-21T06:41:46.490Z,101392.66
2023-05-21T06:44:13.189Z,101381.75
2023-05-21T06:46:39.883Z,101388.16
2023-05-21T06:49:07.340Z,101392.09
2023-05-21T06:51:34.552Z,101390.03
2023-05-21T06:54:01.343Z,101397.22
2023-05-21T06:56:28.045Z,101391.66
2023-05-21T06:58:55.437Z,101390.69
2023-05-21T07:01:23.439Z,101378.97
2023-05-21T07:03:50.204Z,101385.28
2023-05-21T07:06:17.134Z,101385.16
2023-05-21T07:08:48.710Z,101389.41
2023-05-21T07:11:25.777Z,101394.31
2023-05-21T07:14:16.811Z,101396.50
2023-05-21T07:19:55.841Z,101385.19
2023-05-21T07:22:49.122Z,101399.31
2023-05-21T07:25:28.848Z,101390.16
2023-05-21T07:28:22.761Z,101376.38
2023-05-21T07:30:52.802Z,101380.19
2023-05-21T07:33:32.197Z,101383.09
2023-05-21T07:36:04.678Z,101373.81
2023-05-21T07:38:33.039Z,101390.78
2023-05-21T07:40:59.721Z,101389.19
2023-05-21T07:43:36.927Z,101386.72
2023-05-21T07:49:28.577Z,101385.97
2023-05-21T07:52:06.680Z,101376.28
2023-05-21T07:55:07.517Z,101382.63
2023-05-21T07:57:53.669Z,101374.44
2023-05-21T08:00:27.458Z,101367.94
2023-05-21T08:03:00.681Z,101360.59
2023-05-21T08:05:37.601Z,101366.41
2023-05-21T08:08:05.675Z,101367.03
2023-05-21T08:10:40.348Z,101371.41
2023-05-21T08:13:12.220Z,101371.47
2023-05-21T08:15:39.189Z,101365.94
2023-05-21T08:18:16.267Z,101368.53
2023-05-21T08:20:46.522Z,101377.50
2023-05-21T08:23:26.862Z,101367.84
2023-05-21T08:25:53.751Z,101375.84
2023-05-21T08:31:16.373Z,101365.69
2023-05-21T08:33:51.707Z,101368.84
2023-05-21T08:36:31.578Z,101371.69
2023-05-21T08:38:58.230Z,101361.19
2023-05-21T08:41:26.535Z,101364.16
2023-05-21T08:44:01.821Z,101356.66
2023-05-21T08:46:39.701Z,101367.50
2023-05-21T08:49:19.036Z,101364.38
2023-05-21T08:51:55.072Z,101357.69
2023-05-21T08:54:42.334Z,101364.84
2023-05-21T08:57:35.982Z,101362.63
2023-05-21T09:00:07.737Z,101361.16
2023-05-21T09:02:35.208Z,101367.28
2023-05-21T09:05:03.488Z,101364.88
2023-05-21T09:07:31.830Z,101363.75
2023-05-21T09:10:10.178Z,101372.13
2023-05-21T09:15:41.339Z,101365.34
2023-05-21T09:18:08.076Z,101358.31
2023-05-21T09:20:35.401Z,101360.63
2023-05-21T09:23:12.467Z,101364.84
2023-05-21T09:25:39.898Z,101350.44
2023-05-21T09:28:31.753Z,101349.47
2023-05-21T09:31:03.887Z,101355.47
2023-05-21T09:33:30.830Z,101342.63
2023-05-21T09:36:02.621Z,101337.28
2023-05-21T09:38:32.640Z,101341.06
2023-05-21T09:41:03.719Z,101332.94
2023-05-21T09:43:34.169Z,101334.13
2023-05-21T09:46:02.131Z,101342.56
2023-05-21T09:48:47.534Z,101346.94
2023-05-21T09:51:22.795Z,101340.91
2023-05-21T09:54:02.589Z,101342.75
2023-05-21T09:56:45.555Z,101341.06
2023-05-21T09:59:12.955Z,101334.44
2023-05-21T10:01:44.374Z,101337.50
2023-05-21T10:04:12.005Z,101327.13
2023-05-21T10:06:43.312Z,101338.84
2023-05-21T10:09:11.368Z,101329.47
2023-05-21T10:11:40.079Z,101329.53
2023-05-21T10:14:09.727Z,101322.59
2023-05-21T10:16:37.787Z,101315.63
2023-05-21T10:19:06.071Z,101308.78
2023-05-21T10:21:35.598Z,101309.50
2023-05-21T10:24:04.616Z,101302.13
2023-05-21T10:26:31.853Z,101298.00
2023-05-21T10:29:04.270Z,101309.09
2023-05-21T10:31:33.377Z,101297.34
2023-05-21T10:34:01.582Z,101304.53
2023-05-21T10:36:31.824Z,101300.75
2023-05-21T10:39:10.327Z,101302.50
2023-05-21T10:45:44.339Z,101303.78
2023-05-21T10:48:44.980Z,101303.44
2023-05-21T10:51:25.963Z,101298.00
2023-05-21T10:54:24.841Z,101302.81
2023-05-21T10:57:15.023Z,101296.47
2023-05-21T10:59:50.784Z,101281.59
2023-05-21T11:02:24.158Z,101279.47
2023-05-21T11:05:04.754Z,101294.72
2023-05-21T11:08:05.722Z,101285.28
2023-05-21T11:10:41.704Z,101287.72
2023-05-21T11:13:20.032Z,101291.56
2023-05-21T11:16:01.909Z,101279.59
2023-05-21T11:18:50.504Z,101279.69
2023-05-21T11:21:18.941Z,101276.41
2023-05-21T11:24:06.117Z,101269.38
2023-05-21T11:27:06.624Z,101272.63
2023-05-21T11:29:44.659Z,101279.03
2023-05-21T11:32:17.023Z,101277.81
2023-05-21T11:34:47.268Z,101277.41
2023-05-21T11:37:24.167Z,101278.06
2023-05-21T11:40:02.550Z,101266.44
2023-05-21T11:42:38.117Z,101279.28
2023-05-21T11:45:09.489Z,101269.78
2023-05-21T11:47:37.332Z,101263.56
2023-05-21T11:50:04.868Z,101263.44
2023-05-21T11:52:36.030Z,101267.22
2023-05-21T11:55:07.867Z,101263.97
2023-05-21T11:57:41.860Z,101275.59
2023-05-21T12:00:19.283Z,101269.53
2023-05-21T12:02:53.931Z,101272.22
2023-05-21T12:05:27.762Z,101259.63
2023-05-21T12:07:55.658Z,101267.09
2023-05-21T12:10:24.213Z,101271.34
2023-05-21T12:12:56.533Z,101267.59
2023-05-21T12:15:26.407Z,101249.84
2023-05-21T12:17:53.542Z,101267.19
2023-05-21T12:20:21.105Z,101252.72
2023-05-21T12:23:04.881Z,101247.53
2023-05-21T12:25:32.315Z,101257.34
2023-05-21T12:28:01.503Z,101257.25
2023-05-21T12:30:29.113Z,101267.81
2023-05-21T12:32:58.727Z,101259.81
2023-05-21T12:35:25.866Z,101257.31
2023-05-21T12:37:53.116Z,101251.34
2023-05-21T12:40:20.169Z,101255.84
2023-05-21T12:42:47.209Z,101254.63
2023-05-21T12:45:14.759Z,101246.16
2023-05-21T12:47:41.899Z,101249.03
2023-05-21T12:50:12.376Z,101258.72
2023-05-21T12:52:41.264Z,101248.78
2023-05-21T12:55:10.535Z,101244.91
2023-05-21T12:57:40.732Z,101249.91
2023-05-21T13:00:08.947Z,101254.03
2023-05-21T13:02:40.867Z,101248.81
2023-05-21T13:05:09.610Z,101247.84
2023-05-21T13:07:39.368Z,101249.28
2023-05-21T13:10:07.567Z,101239.91
2023-05-21T13:12:34.594Z,101240.03
2023-05-21T13:15:03.024Z,101239.09
2023-05-21T13:17:30.214Z,101244.63
2023-05-21T13:20:12.521Z,101240.66
2023-05-21T13:22:46.837Z,101238.13
2023-05-21T13:25:17.090Z,101236.88
2023-05-21T13:27:44.467Z,101229.91
2023-05-21T13:30:14.432Z,101227.13
2023-05-21T13:32:42.301Z,101230.34
2023-05-21T13:35:12.691Z,101225.78
2023-05-21T13:37:40.686Z,101222.88
2023-05-21T13:40:12.694Z,101233.00
2023-05-21T13:42:39.337Z,101219.94
2023-05-21T13:45:11.038Z,101212.47
2023-05-21T13:47:40.528Z,101223.53
2023-05-21T13:50:08.943Z,101222.47
2023-05-21T13:52:36.299Z,101221.28
2023-05-21T13:55:03.138Z,101223.38
2023-05-21T13:57:31.079Z,101209.69
2023-05-21T13:59:58.866Z,101205.94
2023-05-21T14:02:26.036Z,101201.44
2023-05-21T14:04:52.899Z,101203.25
2023-05-21T14:07:19.748Z,101204.31
2023-05-21T14:09:47.730Z,101203.69
2023-05-21T14:12:14.454Z,101198.09
2023-05-21T14:14:42.113Z,101209.50
2023-05-21T14:17:08.741Z,101201.81
2023-05-21T14:19:35.563Z,101203.28
2023-05-21T14:22:02.230Z,101205.31
2023-05-21T14:24:28.923Z,101204.09
2023-05-21T14:26:55.547Z,101209.91
2023-05-21T14:29:22.161Z,101202.63
2023-05-21T14:31:48.874Z,101205.97
2023-05-21T14:34:15.577Z,101202.66
2023-05-21T14:36:49.247Z,101210.13
2023-05-21T14:39:31.717Z,101209.47
2023-05-21T14:41:58.407Z,101209.88
2023-05-21T14:44:25.023Z,101213.22
2023-05-21T14:46:51.640Z,101207.84
2023-05-21T14:49:18.318Z,101217.78
2023-05-21T14:51:45.048Z,101219.41
2023-05-21T14:54:11.722Z,101215.69
2023-05-21T14:56:38.360Z,101211.50
2023-05-21T14:59:05.014Z,101210.09
2023-05-21T15:01:31.787Z,101206.41
2023-05-21T15:04:27.746Z,101209.50
2023-05-21T15:06:57.134Z,101203.06
2023-05-21T15:09:27.508Z,101193.31
2023-05-21T15:11:57.276Z,101204.69
2023-05-21T15:14:24.671Z,101197.22
2023-05-21T15:16:52.382Z,101203.44
2023-05-21T15:19:20.086Z,101202.63
2023-05-21T15:21:48.663Z,101190.22
2023-05-21T15:24:18.803Z,101197.63
2023-05-21T15:26:45.822Z,101195.59
2023-05-21T15:29:12.671Z,101189.75
2023-05-21T15:31:39.667Z,101186.00
2023-05-21T15:34:06.607Z,101183.56
2023-05-21T15:36:33.457Z,101187.72
2023-05-21T15:39:03.711Z,101190.19
2023-05-21T15:41:41.405Z,101186.69
2023-05-21T15:44:08.154Z,101189.56
2023-05-21T15:46:37.819Z,101188.94
2023-05-21T15:49:04.624Z,101185.84
2023-05-21T15:51:33.144Z,101184.22
2023-05-21T15:54:00.198Z,101171.72
2023-05-21T15:56:28.566Z,101188.13
2023-05-21T15:58:58.250Z,101184.84
2023-05-21T16:01:30.501Z,101194.16
2023-05-21T16:03:57.451Z,101177.41
2023-05-21T16:06:24.335Z,101180.25
2023-05-21T16:08:51.470Z,101176.78
2023-05-21T16:11:18.385Z,101195.16
2023-05-21T16:13:45.285Z,101186.66
2023-05-21T16:16:12.080Z,101188.28
2023-05-21T16:18:38.756Z,101177.75
2023-05-21T16:21:05.938Z,101172.78
2023-05-21T16:23:34.219Z,101183.13
2023-05-21T16:26:01.442Z,101179.94
2023-05-21T16:28:29.766Z,101172.59
2023-05-21T16:30:56.457Z,101174.09
2023-05-21T16:33:23.674Z,101167.94
2023-05-21T16:35:50.916Z,101173.34
2023-05-21T16:38:18.090Z,101171.53
2023-05-21T16:40:45.431Z,101180.69
2023-05-21T16:43:12.236Z,101176.97
2023-05-21T16:45:40.293Z,101168.88
2023-05-21T16:48:07.410Z,101181.06
2023-05-21T16:50:34.513Z,101182.50
2023-05-21T16:53:02.690Z,101179.88
2023-05-21T16:55:31.500Z,101174.47
2023-05-21T16:57:59.109Z,101178.41
2023-05-21T17:00:25.901Z,101178.38
2023-05-21T17:02:53.092Z,101178.16
2023-05-21T17:05:21.055Z,101179.19
2023-05-21T17:07:49.232Z,101173.47
2023-05-21T17:10:16.039Z,101179.16
2023-05-21T17:12:42.763Z,101182.75
2023-05-21T17:15:09.708Z,101190.69
2023-05-21T17:17:36.524Z,101182.88
2023-05-21T17:20:04.322Z,101195.41
2023-05-21T17:22:31.806Z,101182.44
2023-05-21T17:24:59.034Z,101178.81
2023-05-21T17:27:25.983Z,101181.75
2023-05-21T17:29:52.783Z,101179.44
2023-05-21T17:32:21.166Z,101176.72
2023-05-21T17:34:48.128Z,101181.22
2023-05-21T17:37:14.789Z,101180.06
2023-05-21T17:39:41.524Z,101167.34
2023-05-21T17:42:08.387Z,101177.69
2023-05-21T17:44:35.016Z,101178.81
2023-05-21T17:47:01.950Z,101174.38
2023-05-21T17:49:28.904Z,101173.78
2023-05-21T17:51:55.900Z,101183.47
2023-05-21T17:54:22.781Z,101173.69
2023-05-21T17:56:49.520Z,101174.25
2023-05-21T17:59:16.754Z,101187.56
2023-05-21T18:01:43.859Z,101190.72
2023-05-21T18:04:12.406Z,101194.22
2023-05-21T18:06:40.168Z,101187.25
2023-05-21T18:09:14.456Z,101196.78
2023-05-21T18:11:44.260Z,101201.47
2023-05-21T18:14:11.054Z,101188.78
2023-05-21T18:16:38.032Z,101198.22
2023-05-21T18:19:07.967Z,101189.88
2023-05-21T18:21:37.338Z,101205.59
2023-05-21T18:24:04.559Z,101198.72
2023-05-21T18:26:31.777Z,101194.13
2023-05-21T18:28:59.001Z,101200.81
2023-05-21T18:31:26.415Z,101199.47
2023-05-21T18:33:53.174Z,101204.25
2023-05-21T18:36:20.044Z,101200.00
2023-05-21T18:38:46.947Z,101207.97
2023-05-21T18:41:13.868Z,101194.16
2023-05-21T18:43:41.814Z,101210.25
2023-05-21T18:46:08.740Z,101205.59
2023-05-21T18:48:35.800Z,101201.09
2023-05-21T18:51:02.509Z,101202.31
2023-05-21T18:53:29.191Z,101213.78
2023-05-21T18:55:55.915Z,101209.03
2023-05-21T18:58:23.909Z,101213.03
2023-05-21T19:00:50.921Z,101202.41
2023-05-21T19:03:17.654Z,101206.59
2023-05-21T19:05:44.423Z,101215.09
2023-05-21T19:08:11.410Z,101224.66
2023-05-21T19:10:39.651Z,101212.03
2023-05-21T19:13:06.865Z,101226.44
2023-05-21T19:15:33.945Z,101225.56
2023-05-21T19:18:01.792Z,101229.16
2023-05-21T19:20:28.567Z,101240.47
2023-05-21T19:22:55.539Z,101233.50
2023-05-21T19:25:22.242Z,101243.69
2023-05-21T19:27:49.103Z,101243.97
2023-05-21T19:30:15.836Z,101242.44
2023-05-21T19:32:42.733Z,101246.13
2023-05-21T19:35:09.635Z,101236.66
2023-05-21T19:37:36.560Z,101254.81
2023-05-21T19:40:03.956Z,101248.16
2023-05-21T19:42:30.590Z,101253.97
2023-05-21T19:44:57.246Z,101254.66
2023-05-21T19:47:24.046Z,101242.81
2023-05-21T19:49:50.957Z,101250.47
2023-05-21T19:52:17.843Z,101248.97
2023-05-21T19:54:44.844Z,101249.97
2023-05-21T19:57:13.394Z,101250.31
2023-05-21T19:59:40.083Z,101250.31
2023-05-21T20:02:07.365Z,101250.97
2023-05-21T20:04:34.271Z,101249.94
2023-05-21T20:07:00.992Z,101243.78
2023-05-21T20:09:28.149Z,101248.59
2023-05-21T20:11:55.146Z,101254.59
2023-05-21T20:14:21.954Z,101243.78
2023-05-21T20:16:49.579Z,101242.91
2023-05-21T20:19:16.408Z,101240.59
2023-05-21T20:21:43.408Z,101244.59
2023-05-21T20:24:14.059Z,101240.88
2023-05-21T20:26:40.863Z,101251.00
2023-05-21T20:29:14.300Z,101254.81
2023-05-21T20:31:41.312Z,101249.69
2023-05-21T20:34:13.463Z,101252.69
2023-05-21T20:36:43.655Z,101247.91
2023-05-21T20:39:15.110Z,101243.06
2023-05-21T20:41:44.854Z,101251.41
2023-05-21T20:44:12.470Z,101260.38
2023-05-21T20:46:39.423Z,101256.72
2023-05-21T20:49:06.781Z,101256.41
2023-05-21T20:51:35.175Z,101259.72
2023-05-21T20:54:02.041Z,101250.56
2023-05-21T20:56:41.032Z,101250.19
2023-05-21T20:59:10.622Z,101254.22
2023-05-21T21:01:38.215Z,101253.53
2023-05-21T21:04:05.223Z,101258.31
2023-05-21T21:06:46.652Z,101249.84
2023-05-21T21:09:13.426Z,101253.00
2023-05-21T21:11:40.196Z,101262.91
2023-05-21T21:14:07.318Z,101264.31
2023-05-21T21:16:34.266Z,101269.31
2023-05-21T21:19:01.456Z,101269.22
2023-05-21T21:21:35.850Z,101264.97
2023-05-21T21:24:02.645Z,101272.13
2023-05-21T21:26:34.722Z,101275.22
2023-05-21T21:29:01.521Z,101270.19
2023-05-21T21:31:30.086Z,101273.25
2023-05-21T21:34:00.531Z,101273.94
2023-05-21T21:36:32.713Z,101274.19
2023-05-21T21:38:59.717Z,101276.84
2023-05-21T21:41:26.589Z,101274.94
2023-05-21T21:43:53.274Z,101277.44
2023-05-21T21:46:20.591Z,101273.38
2023-05-21T21:48:53.748Z,101273.34
2023-05-21T21:51:23.133Z,101263.84
2023-05-21T21:53:50.835Z,101277.06
2023-05-21T21:56:20.582Z,101262.72
2023-05-21T21:58:47.328Z,101274.97
2023-05-21T22:01:20.299Z,101275.66
2023-05-21T22:03:56.842Z,101268.97
2023-05-21T22:09:39.024Z,101270.44
2023-05-21T22:12:18.885Z,101265.97
2023-05-21T22:14:45.556Z,101272.34
2023-05-21T22:17:12.318Z,101270.53
2023-05-21T22:20:05.801Z,101267.72
2023-05-21T22:22:32.706Z,101264.69
2023-05-21T22:24:59.457Z,101271.97
2023-05-21T22:27:26.185Z,101266.44
2023-05-21T22:29:53.922Z,101266.75
2023-05-21T22:32:26.841Z,101265.69
2023-05-21T22:34:53.675Z,101262.84
2023-05-21T22:37:28.715Z,101256.00
2023-05-21T22:42:32.534Z,101273.25
2023-05-21T22:44:59.291Z,101270.34
2023-05-21T22:47:26.519Z,101269.41
2023-05-21T22:49:53.476Z,101268.81
2023-05-21T22:52:23.878Z,101272.06
2023-05-21T22:54:54.415Z,101271.28
2023-05-21T22:57:21.147Z,101272.72
2023-05-21T22:59:47.776Z,101269.28
2023-05-21T23:02:15.793Z,101262.38
2023-05-21T23:04:44.525Z,101268.69
2023-05-21T23:07:11.606Z,101268.38
2023-05-21T23:09:38.389Z,101260.91
2023-05-21T23:12:05.430Z,101266.63
2023-05-21T23:14:32.042Z,101266.88
2023-05-21T23:17:02.033Z,101257.03
2023-05-21T23:19:29.694Z,101257.72
2023-05-21T23:21:56.559Z,101267.09
2023-05-21T23:24:23.182Z,101264.56
2023-05-21T23:26:50.046Z,101266.31
2023-05-21T23:29:16.930Z,101266.44
2023-05-21T23:31:43.742Z,101259.94
2023-05-21T23:34:10.732Z,101256.97
2023-05-21T23:36:37.390Z,101255.28
2023-05-21T23:39:04.105Z,101248.88
2023-05-21T23:41:30.841Z,101249.53
2023-05-21T23:43:57.492Z,101243.53
2023-05-21T23:46:24.167Z,101244.44
2023-05-21T23:48:50.926Z,101244.28
2023-05-21T23:51:19.297Z,101252.75
2023-05-21T23:53:45.973Z,101247.06
2023-05-21T23:56:12.652Z,101249.78
2023-05-21T23:58:39.284Z,101247.13
